Impacts METAR Board
IDs:

KMCO - Orlando Intl, FL, US

Updated at: 0300 UTC 06 Dec 2019
Potential Impact None Slight Moderate High
Time 05/15Z 05/16Z 05/17Z 05/18Z 05/19Z 05/20Z 05/21Z 05/22Z 05/23Z 06/00Z 06/01Z 06/02Z 06/03Z
Temp63 66 68 70 71 70 70 67 61 60 59 58 57
Dewpt41 37 35 33 33 35 36 38 40 45 46 46 46
Altim30.14 30.14 30.13 30.11 30.09 30.10 30.09 30.11 30.13 30.16 30.17 30.19 30.20
VIS10 10 10 10 10 10 10 10 10 10 10 10 10
CIG-- -- -- -- -- 250 250 250 250 250 250 250 250
CoverSCTSCTFEWFEWSCTBKNBKNBKNBKNBKNBKNBKNBKN
FltCatVFRVFRVFRVFRVFRVFRVFRVFRVFRVFRVFRVFRVFR
WX--------------------------
WDir35036035036033032010103506070800
WSpd7 8 8 6 7 3 7 5 5 6 5 3 0
WGst-- -- -- -- -- -- -- -- -- -- -- -- --
Raw hourly METARs
KMCO 051453Z 35007KT 10SM SCT250 17/05 A3014 RMK AO2 SLP207 T01720050 53016
KMCO 051553Z 36008KT 10SM SCT250 19/03 A3014 RMK AO2 SLP206 T01890028
KMCO 051653Z 35008KT 10SM FEW250 20/02 A3013 RMK AO2 SLP204 T02000017
KMCO 051753Z 36006KT 10SM FEW100 FEW250 21/01 A3011 RMK AO2 SLP194 T02110006 10211 20089 58013
KMCO 051853Z 33007KT 10SM SCT250 22/01 A3009 RMK AO2 SLP188 T02170006
KMCO 051953Z 32003KT 10SM BKN250 21/02 A3010 RMK AO2 SLP191 T02110017
KMCO 052053Z 01007KT 10SM BKN250 21/02 A3009 RMK AO2 SLP190 T02110022 56004
KMCO 052153Z 01005KT 10SM FEW200 BKN250 19/03 A3011 RMK AO2 SLP194 T01940033
KMCO 052253Z 35005KT 10SM FEW200 BKN250 16/04 A3013 RMK AO2 SLP202 T01610044
KMCO 052353Z 06006KT 10SM FEW200 BKN250 16/07 A3016 RMK AO2 SLP213 T01560072 10217 20144 53023
KMCO 060053Z 07005KT 10SM BKN250 15/08 A3017 RMK AO2 SLP215 T01500078
KMCO 060153Z 08003KT 10SM BKN250 14/08 A3019 RMK AO2 SLP223 T01440078
KMCO 060253Z 00000KT 10SM BKN250 14/08 A3020 RMK AO2 SLP225 T01390078 51012



Page loaded:  03:49 UTC  |   07:49 PM Pacific  |   08:49 PM Mountain  |   09:49 PM Central  |   10:49 PM Eastern

 

ADVISORIES

FORECASTS

FORECASTS

OBSERVATIONS

USER TOOLS

ABOUT US